Time;durP1;ratioP1;P1;durP2;ratioP2;P2;SDS_P1;SDS_P2;PMS_P1;PMS_P2;Temp;Humidity;BMP_temperature;BMP_pressure;BME280_temperature;BME280_humidity;BME280_pressure;Samples;Min_cycle;Max_cycle;Signal;HPM_P1;HPM_P2
2021/03/16 00:02:44;;;;;;;23.25;14.45;;;;;;;8.84;50.85;99616.25;1751744;82;21142;-80
2021/03/16 00:05:13;;;;;;;24.27;16.50;;;;;;;8.83;50.78;99618.59;1751715;82;21165;-79
2021/03/16 00:07:41;;;;;;;25.65;16.07;;;;;;;8.80;50.71;99615.75;1754237;81;21083;-79
2021/03/16 00:10:09;;;;;;;23.07;14.75;;;;;;;8.74;50.70;99608.42;1751817;82;21080;-80
2021/03/16 00:12:36;;;;;;;25.75;16.87;;;;;;;8.69;50.68;99615.27;1730699;82;21102;-78
2021/03/16 00:15:05;;;;;;;25.55;15.50;;;;;;;8.61;50.74;99606.24;1751678;82;21173;-84
2021/03/16 00:17:33;;;;;;;23.12;15.48;;;;;;;8.58;50.78;99611.07;1751730;82;21181;-79
2021/03/16 00:20:01;;;;;;;24.27;14.75;;;;;;;8.54;50.76;99607.92;1751867;82;21058;-80
2021/03/16 00:22:27;;;;;;;;;;;;;;;8.55;50.79;99614.92;1733660;82;21062;-81
2021/03/16 00:24:56;;;;;;;20.72;14.20;;;;;;;8.57;50.56;99614.24;1720170;83;20229;-80
2021/03/16 00:27:24;;;;;;;22.32;14.30;;;;;;;8.52;50.45;99606.41;1707450;82;21557;-80
2021/03/16 00:29:51;;;;;;;20.75;13.75;;;;;;;8.43;50.45;99600.73;1704588;84;21182;-80
2021/03/16 00:32:18;;;;;;;23.95;14.03;;;;;;;8.37;50.59;99605.73;1684368;84;21154;-78
2021/03/16 00:34:46;;;;;;;23.50;13.70;;;;;;;8.39;50.69;99604.22;1705188;84;21620;-82
2021/03/16 00:37:13;;;;;;;;;;;;;;;8.44;50.60;99591.21;1707183;82;21197;-78
2021/03/16 00:39:40;;;;;;;24.72;14.10;;;;;;;8.48;50.51;99593.89;1705182;84;20583;-80
2021/03/16 00:42:08;;;;;;;22.27;12.33;;;;;;;8.45;50.50;99579.56;1705353;84;21102;-77
2021/03/16 00:44:36;;;;;;;24.95;13.70;;;;;;;8.46;50.43;99598.57;1704911;84;21126;-81
2021/03/16 00:47:04;;;;;;;21.05;13.83;;;;;;;8.45;50.45;99587.56;1704852;84;21588;-78
2021/03/16 00:49:31;;;;;;;;;;;;;;;8.44;50.52;99586.38;1707593;84;21166;-78
2021/03/16 00:51:58;;;;;;;19.90;13.30;;;;;;;8.46;50.56;99582.55;1705193;84;20528;-81
2021/03/16 00:54:26;;;;;;;24.75;14.00;;;;;;;8.50;50.55;99586.56;1704996;84;21197;-84
2021/03/16 00:56:53;;;;;;;;;;;;;;;8.55;50.41;99573.55;1707556;84;21246;-77
2021/03/16 00:59:20;;;;;;;21.35;12.88;;;;;;;8.57;50.28;99577.38;1705418;84;20235;-81
2021/03/16 01:01:47;;;;;;;20.62;11.65;;;;;;;8.53;50.28;99586.21;1682098;85;21173;-84
2021/03/16 01:04:14;;;;;;;18.65;13.18;;;;;;;8.49;50.28;99582.70;1653255;85;21154;-81
2021/03/16 01:06:41;;;;;;;;;;;;;;;8.44;50.37;99577.87;1684418;84;21101;-84
2021/03/16 01:09:10;;;;;;;23.65;12.93;;;;;;;8.45;50.40;99575.55;1699967;82;20235;-83
2021/03/16 01:11:37;;;;;;;23.10;14.30;;;;;;;8.42;50.48;99566.54;1726103;82;21137;-83
2021/03/16 01:14:07;;;;;;;27.17;14.90;;;;;;;8.49;50.45;99574.20;1706779;84;21181;-78
2021/03/16 01:16:34;;;;;;;21.15;14.07;;;;;;;8.53;50.44;99572.03;1706553;84;21162;-80
2021/03/16 01:19:01;;;;;;;;;;;;;;;8.60;50.39;99573.05;1708564;82;21096;-82
2021/03/16 01:21:29;;;;;;;22.02;14.30;;;;;;;8.62;50.24;99574.53;1706348;84;20237;-76
2021/03/16 01:23:56;;;;;;;23.85;13.48;;;;;;;8.61;50.22;99570.70;1706486;83;21174;-77
2021/03/16 01:26:23;;;;;;;;;;;;;;;8.62;50.19;99569.20;1708495;82;21102;-80
2021/03/16 01:28:50;;;;;;;20.10;12.68;;;;;;;8.66;50.18;99576.88;1706334;84;20527;-79
2021/03/16 01:31:17;;;;;;;22.60;13.10;;;;;;;8.64;50.21;99567.21;1706164;83;21655;-76
2021/03/16 01:33:45;;;;;;;25.25;14.15;;;;;;;8.70;50.12;99570.20;1706629;83;21125;-78
2021/03/16 01:36:13;;;;;;;24.27;14.28;;;;;;;8.75;50.05;99573.20;1706845;84;21173;-80
2021/03/16 01:38:42;;;;;;;27.75;15.03;;;;;;;8.78;49.96;99563.03;1705866;84;21532;-79
2021/03/16 01:41:09;;;;;;;27.75;13.95;;;;;;;8.81;49.85;99567.18;1705370;84;21074;-76
2021/03/16 01:43:36;;;;;;;25.85;14.07;;;;;;;8.81;49.88;99572.52;1705391;82;21157;-80
2021/03/16 01:46:05;;;;;;;26.80;14.25;;;;;;;8.81;49.76;99573.38;1710961;84;21166;-77
2021/03/16 01:48:36;;;;;;;26.65;14.55;;;;;;;8.80;49.76;99565.02;1710808;84;21153;-82
2021/03/16 01:51:07;;;;;;;26.73;15.13;;;;;;;8.81;49.78;99564.51;1703808;83;21220;-78
2021/03/16 01:53:35;;;;;;;23.10;13.38;;;;;;;8.80;49.71;99564.19;1710772;82;21170;-81
2021/03/16 01:56:05;;;;;;;22.45;13.48;;;;;;;8.77;49.80;99567.21;1708860;84;21162;-78
2021/03/16 01:58:56;;;;;;;19.07;13.32;;;;;;;8.77;49.85;99570.71;1710544;83;25303;-78
2021/03/16 02:01:43;;;;;;;24.52;13.83;;;;;;;8.80;49.77;99565.52;1710361;84;21095;-83
2021/03/16 02:04:28;;;;;;;27.62;13.93;;;;;;;8.81;49.79;99571.19;1710503;84;21099;-79
2021/03/16 02:07:30;;;;;;;28.10;14.23;;;;;;;8.84;49.76;99568.19;1710437;84;21157;-80
2021/03/16 02:10:51;;;;;;;23.40;14.47;;;;;;;8.86;49.69;99571.55;1704733;84;21150;-82
2021/03/16 02:13:58;;;;;;;23.60;13.95;;;;;;;8.88;49.64;99570.86;1704677;84;21079;-80
2021/03/16 02:16:58;;;;;;;24.07;13.93;;;;;;;8.86;49.66;99575.55;1704738;84;21579;-79
2021/03/16 02:20:08;;;;;;;22.40;12.98;;;;;;;8.83;49.67;99574.53;1704581;84;21176;-81
2021/03/16 02:22:50;;;;;;;23.38;13.70;;;;;;;8.84;49.75;99574.36;1890876;76;23308;-80
2021/03/16 02:26:03;;;;;;;25.23;15.15;;;;;;;8.82;49.78;99579.55;1852269;77;21549;-77
2021/03/16 02:29:07;;;;;;;27.45;15.85;;;;;;;8.84;49.78;99577.03;1854389;77;21056;-79
2021/03/16 02:31:55;;;;;;;29.27;15.63;;;;;;;8.87;49.75;99573.20;1853420;77;21521;-80
2021/03/16 02:34:43;;;;;;;29.55;16.45;;;;;;;8.89;49.66;99565.84;1854746;77;21095;-76
2021/03/16 02:37:31;;;;;;;40.07;17.17;;;;;;;8.88;49.69;99577.53;1828998;77;21170;-79
2021/03/16 02:40:17;;;;;;;26.30;16.23;;;;;;;8.84;49.76;99570.35;1826922;77;21142;-78
2021/03/16 02:43:03;;;;;;;24.23;14.23;;;;;;;8.82;49.82;99576.88;1849718;77;21061;-82
2021/03/16 02:45:49;;;;;;;26.15;16.52;;;;;;;8.80;49.90;99578.88;1780108;80;20955;-79
2021/03/16 02:48:36;;;;;;;26.17;16.37;;;;;;;8.83;49.90;99574.53;1803792;79;21113;-80
2021/03/16 02:51:23;;;;;;;25.55;15.90;;;;;;;8.88;49.92;99580.20;1804686;79;21077;-76
2021/03/16 02:54:10;;;;;;;22.90;15.08;;;;;;;8.92;49.86;99576.20;1780828;80;21477;-79
2021/03/16 02:56:56;;;;;;;27.05;16.15;;;;;;;8.94;49.82;99583.52;1804850;79;21119;-78
2021/03/16 02:59:44;;;;;;;25.23;15.90;;;;;;;8.94;49.84;99587.53;1804534;79;21671;-81
2021/03/16 03:02:29;;;;;;;24.87;15.30;;;;;;;8.96;49.88;99583.38;1804055;79;21065;-79
2021/03/16 03:05:15;;;;;;;23.22;14.20;;;;;;;8.97;49.77;99580.52;1804170;79;20982;-81
2021/03/16 03:08:05;;;;;;;22.17;14.30;;;;;;;8.94;49.71;99577.35;1804083;78;21073;-78
2021/03/16 03:10:50;;;;;;;22.85;13.90;;;;;;;8.92;49.74;99577.53;1792149;79;21062;-81
2021/03/16 03:13:37;;;;;;;22.67;12.85;;;;;;;8.91;49.79;99579.88;1823161;78;21109;-76
2021/03/16 03:16:22;;;;;;;23.42;14.38;;;;;;;8.95;49.76;99587.02;1832650;78;21067;-79
2021/03/16 03:19:09;;;;;;;23.35;14.70;;;;;;;8.96;49.69;99574.86;1829252;78;21039;-81
2021/03/16 03:22:13;;;;;;;25.10;14.30;;;;;;;8.99;49.63;99583.84;1798581;79;21153;-80
2021/03/16 03:25:03;;;;;;;51.53;15.95;;;;;;;9.02;49.62;99584.85;1798688;79;21599;-77
2021/03/16 03:27:52;;;;;;;23.90;14.45;;;;;;;9.04;49.60;99594.05;1802286;79;20960;-74
2021/03/16 03:30:37;;;;;;;26.40;14.15;;;;;;;9.03;49.61;99595.86;1807592;78;21103;-77
2021/03/16 03:33:23;;;;;;;27.82;13.98;;;;;;;9.02;49.52;99606.73;1834061;78;21046;-78
2021/03/16 03:36:09;;;;;;;26.87;16.48;;;;;;;8.98;49.62;99602.22;1833427;78;21035;-78
2021/03/16 03:38:54;;;;;;;25.45;14.35;;;;;;;8.95;49.59;99598.57;1832428;78;21154;-81
2021/03/16 03:41:40;;;;;;;23.83;13.70;;;;;;;8.90;49.72;99604.89;1832710;78;21498;-83
2021/03/16 03:44:26;;;;;;;24.57;13.28;;;;;;;8.86;49.78;99604.92;1832517;78;21109;-80
2021/03/16 03:47:11;;;;;;;21.15;12.90;;;;;;;8.84;49.94;99602.91;1802969;78;21101;-79
2021/03/16 03:49:58;;;;;;;22.17;13.38;;;;;;;8.82;50.06;99596.41;1832218;78;21119;-78
2021/03/16 03:52:44;;;;;;;22.48;13.30;;;;;;;8.81;50.15;99588.54;1832309;78;21650;-77
2021/03/16 03:55:30;;;;;;;23.50;13.72;;;;;;;8.80;50.14;99592.22;1832553;78;21523;-77
2021/03/16 03:58:16;;;;;;;22.82;12.82;;;;;;;8.78;50.17;99594.23;1832577;78;21546;-80
2021/03/16 04:01:02;;;;;;;25.62;13.85;;;;;;;8.73;50.23;99585.91;1831895;78;21133;-83
2021/03/16 04:03:48;;;;;;;25.12;13.58;;;;;;;8.66;50.31;99601.73;1832088;78;21195;-80
2021/03/16 04:06:34;;;;;;;20.82;12.03;;;;;;;8.61;50.39;99599.56;1832449;78;21140;-78
2021/03/16 04:09:20;;;;;;;21.62;12.93;;;;;;;8.52;50.58;99599.73;1780755;78;21157;-81
2021/03/16 04:12:08;;;;;;;21.40;13.48;;;;;;;8.52;50.73;99597.06;1831184;78;21169;-81
2021/03/16 04:14:54;;;;;;;23.83;12.75;;;;;;;8.54;50.78;99605.25;1825028;78;21184;-81
2021/03/16 04:17:41;;;;;;;20.85;12.65;;;;;;;8.56;50.82;99601.08;1773370;79;21118;-80
2021/03/16 04:20:28;;;;;;;22.27;12.65;;;;;;;8.57;50.83;99596.89;1790622;78;21879;-80
2021/03/16 04:23:14;;;;;;;23.12;12.73;;;;;;;8.60;50.83;99607.75;1815537;78;21110;-78
2021/03/16 04:26:00;;;;;;;20.37;12.53;;;;;;;8.60;50.86;99611.76;1833153;78;21520;-78
2021/03/16 04:28:47;;;;;;;20.63;11.43;;;;;;;8.55;50.86;99605.58;1840679;78;21608;-80
2021/03/16 04:31:33;;;;;;;24.43;11.83;;;;;;;8.51;51.00;99612.25;1840872;77;21185;-82
2021/03/16 04:34:19;;;;;;;24.37;12.98;;;;;;;8.50;51.09;99621.27;1830077;78;21137;-78
2021/03/16 04:37:05;;;;;;;24.57;11.35;;;;;;;8.43;51.20;99614.91;1805906;77;21217;-77
2021/03/16 04:39:50;;;;;;;21.65;11.38;;;;;;;8.42;51.44;99611.91;1808324;77;21138;-80
2021/03/16 04:42:36;;;;;;;21.23;11.83;;;;;;;8.48;51.42;99611.23;1830975;78;21135;-77
2021/03/16 04:45:21;;;;;;;19.48;11.93;;;;;;;8.54;51.35;99615.93;1807745;78;21186;-80
2021/03/16 04:48:07;;;;;;;19.85;11.48;;;;;;;8.57;51.26;99606.23;1799466;79;21584;-80
2021/03/16 04:50:54;;;;;;;27.13;10.98;;;;;;;8.60;51.29;99607.25;1813658;78;21098;-83
2021/03/16 04:53:39;;;;;;;18.73;10.30;;;;;;;8.63;51.22;99604.26;1800072;77;21039;-79
2021/03/16 04:56:25;;;;;;;21.00;10.80;;;;;;;8.68;51.25;99613.60;1820696;78;21167;-78
2021/03/16 04:59:10;;;;;;;21.20;11.10;;;;;;;8.65;51.26;99601.41;1808683;77;21216;-78
2021/03/16 05:01:57;;;;;;;19.35;10.25;;;;;;;8.73;51.11;99600.59;1814387;78;21419;-77
2021/03/16 05:04:45;;;;;;;;;;;;;;;8.78;51.09;99614.27;1832347;78;21177;-78
2021/03/16 05:07:32;;;;;;;21.90;10.15;;;;;;;8.79;51.03;99607.91;1805720;78;20555;-80
2021/03/16 05:10:19;;;;;;;24.00;10.32;;;;;;;8.81;50.97;99609.43;1809003;77;21182;-79
2021/03/16 05:13:05;;;;;;;19.15;8.28;;;;;;;8.82;50.89;99603.58;1814053;77;21197;-77
2021/03/16 05:15:51;;;;;;;22.15;9.83;;;;;;;8.80;50.98;99605.06;1822665;78;21174;-79
2021/03/16 05:18:37;;;;;;;24.45;11.38;;;;;;;8.83;50.91;99601.24;1811606;77;21210;-78
2021/03/16 05:21:22;;;;;;;17.95;11.22;;;;;;;8.75;50.88;99606.58;1808743;77;21802;-77
2021/03/16 05:24:09;;;;;;;21.10;10.85;;;;;;;8.68;51.13;99608.27;1812473;77;21659;-79
2021/03/16 05:26:55;;;;;;;24.27;11.50;;;;;;;8.68;51.29;99604.27;1810666;77;21119;-79
2021/03/16 05:29:40;;;;;;;17.65;10.08;;;;;;;8.70;51.36;99607.58;1817402;77;21169;-78
2021/03/16 05:32:26;;;;;;;24.92;12.40;;;;;;;8.72;51.37;99606.43;1833604;77;21228;-79
2021/03/16 05:35:12;;;;;;;17.23;10.75;;;;;;;8.72;51.43;99601.09;1821838;77;21128;-75
2021/03/16 05:37:58;;;;;;;18.35;9.70;;;;;;;8.75;51.47;99597.23;1812414;77;21121;-76
2021/03/16 05:40:43;;;;;;;23.65;12.03;;;;;;;8.78;51.41;99596.41;1803065;77;21221;-78
2021/03/16 05:43:30;;;;;;;20.82;12.05;;;;;;;8.80;51.35;99597.56;1810428;77;21360;-76
2021/03/16 05:46:16;;;;;;;15.80;10.90;;;;;;;8.83;51.27;99596.73;1808614;77;21134;-76
2021/03/16 05:49:04;;;;;;;19.05;10.53;;;;;;;8.86;51.24;99604.92;1818455;77;21118;-77
2021/03/16 05:51:49;;;;;;;21.45;9.15;;;;;;;8.81;51.20;99612.58;1796591;79;21108;-78
2021/03/16 05:54:34;;;;;;;19.52;9.95;;;;;;;8.72;51.32;99624.25;1805141;77;21035;-78
2021/03/16 05:57:21;;;;;;;20.45;10.13;;;;;;;8.61;51.49;99620.92;1820460;77;21530;-78
2021/03/16 06:00:08;;;;;;;17.15;9.30;;;;;;;8.57;51.79;99622.75;1800861;77;21176;-77
2021/03/16 06:02:53;;;;;;;16.17;9.15;;;;;;;8.61;51.84;99623.59;1804884;77;21800;-76
2021/03/16 06:05:40;;;;;;;14.07;9.20;;;;;;;8.67;51.84;99622.59;1821649;77;21179;-76
2021/03/16 06:08:25;;;;;;;15.30;9.30;;;;;;;8.71;51.80;99626.59;1808736;77;21601;-78
2021/03/16 06:11:11;;;;;;;25.70;14.25;;;;;;;8.73;51.66;99636.13;1813946;76;21546;-75
2021/03/16 06:13:56;;;;;;;26.45;14.18;;;;;;;8.74;51.69;99635.62;1812408;77;21120;-76
2021/03/16 06:16:42;;;;;;;23.42;11.20;;;;;;;8.75;51.66;99633.28;1819201;77;21085;-75
2021/03/16 06:19:36;;;;;;;25.90;13.58;;;;;;;8.80;51.59;99633.61;1814010;76;21651;-78
2021/03/16 06:22:21;;;;;;;21.68;11.00;;;;;;;8.80;51.52;99630.94;1819529;77;21110;-78
2021/03/16 06:25:08;;;;;;;18.65;10.05;;;;;;;8.81;51.57;99631.27;1819359;77;21154;-76
2021/03/16 06:28:01;;;;;;;17.00;9.48;;;;;;;8.82;51.51;99628.45;1814044;76;21134;-75
2021/03/16 06:30:50;;;;;;;33.02;15.95;;;;;;;8.81;51.48;99632.59;1813448;77;21100;-76
2021/03/16 06:33:37;;;;;;;25.85;13.70;;;;;;;8.77;51.50;99630.79;1819001;77;21139;-76
2021/03/16 06:36:26;;;;;;;32.17;15.30;;;;;;;8.78;51.54;99636.96;1813960;77;21678;-77
2021/03/16 06:39:20;;;;;;;25.17;13.75;;;;;;;8.83;51.44;99637.29;1758851;77;21129;-75
2021/03/16 06:42:06;;;;;;;26.07;13.48;;;;;;;8.81;51.42;99648.63;1732580;80;21199;-75
2021/03/16 06:45:07;;;;;;;19.10;10.25;;;;;;;8.75;51.51;99631.44;1709112;81;22003;-77
2021/03/16 06:47:53;;;;;;;22.45;11.18;;;;;;;8.75;51.67;99648.80;1780059;78;21112;-75
2021/03/16 06:50:39;;;;;;;19.45;9.88;;;;;;;8.80;51.70;99640.28;1780248;78;21563;-75
2021/03/16 06:53:27;;;;;;;23.40;10.35;;;;;;;8.84;51.62;99640.29;1783450;79;21140;-77
2021/03/16 06:56:15;;;;;;;15.03;8.33;;;;;;;8.83;51.63;99659.98;1777494;78;21140;-77
2021/03/16 06:59:04;;;;;;;18.50;9.93;;;;;;;8.83;51.63;99647.47;1772034;78;21112;-75
2021/03/16 07:01:52;;;;;;;17.12;9.10;;;;;;;8.81;51.61;99644.62;1761767;79;21124;-76
2021/03/16 07:04:43;;;;;;;21.12;11.73;;;;;;;8.78;51.76;99644.47;1779029;78;21176;-78
2021/03/16 07:07:29;;;;;;;20.20;11.43;;;;;;;8.81;51.69;99644.62;1778739;79;21646;-75
2021/03/16 07:10:15;;;;;;;22.70;12.68;;;;;;;8.81;51.67;99645.95;1784546;79;21129;-78
2021/03/16 07:13:01;;;;;;;17.55;9.23;;;;;;;8.79;51.64;99643.96;1780934;79;21108;-77
2021/03/16 07:15:47;;;;;;;15.38;8.58;;;;;;;8.78;51.65;99640.97;1779567;79;21148;-78
2021/03/16 07:18:44;;;;;;;18.05;10.43;;;;;;;8.79;51.64;99650.64;1779949;79;21131;-76
2021/03/16 07:21:37;;;;;;;18.50;10.63;;;;;;;8.79;51.59;99650.64;1780024;79;21125;-75
2021/03/16 07:24:25;;;;;;;16.80;9.53;;;;;;;8.76;51.67;99642.45;1780476;78;21100;-75
2021/03/16 07:27:16;;;;;;;18.65;11.40;;;;;;;8.80;51.70;99642.95;1765451;79;21171;-79
2021/03/16 07:30:13;;;;;;;14.87;8.25;;;;;;;8.82;51.64;99640.97;1777108;79;21148;-77
2021/03/16 07:33:01;;;;;;;17.85;8.45;;;;;;;8.82;51.74;99648.98;1782604;78;21088;-77
2021/03/16 07:35:48;;;;;;;18.50;12.33;;;;;;;8.85;51.76;99643.28;1779392;78;21155;-77
2021/03/16 07:38:46;;;;;;;25.65;11.25;;;;;;;8.83;51.70;99642.13;1781998;78;21140;-75
2021/03/16 07:41:37;;;;;;;24.77;8.68;;;;;;;8.85;51.85;99632.60;1780734;79;21165;-79
2021/03/16 07:44:44;;;;;;;17.62;9.73;;;;;;;8.90;51.80;99631.59;1781874;78;21589;-81
2021/03/16 07:47:40;;;;;;;23.32;9.73;;;;;;;8.90;51.72;99638.27;1756677;78;21136;-77
2021/03/16 07:50:36;;;;;;;13.70;8.38;;;;;;;8.86;51.83;99639.64;1755339;79;21105;-77
2021/03/16 07:53:25;;;;;;;16.15;9.13;;;;;;;8.88;51.91;99642.96;1779600;78;21152;-78
2021/03/16 07:56:26;;;;;;;17.85;9.45;;;;;;;8.93;51.87;99646.47;1778023;79;21429;-76
2021/03/16 07:59:21;;;;;;;20.97;10.30;;;;;;;8.97;51.84;99647.30;1773869;78;21112;-77
2021/03/16 08:02:07;;;;;;;21.85;12.00;;;;;;;9.03;51.70;99647.95;1774744;79;21779;-77
2021/03/16 08:04:54;;;;;;;19.62;13.15;;;;;;;9.04;51.70;99632.28;1774343;78;21103;-75
2021/03/16 08:07:40;;;;;;;20.65;10.70;;;;;;;9.09;51.64;99632.61;1741803;80;21143;-75
2021/03/16 08:10:27;;;;;;;16.97;9.33;;;;;;;9.14;51.59;99631.59;1739039;80;21121;-75
2021/03/16 08:13:19;;;;;;;22.82;14.73;;;;;;;9.21;51.52;99637.59;1738954;80;21116;-77
2021/03/16 08:16:13;;;;;;;20.37;11.50;;;;;;;9.28;51.33;99639.42;1704144;82;21131;-77
2021/03/16 08:19:28;;;;;;;20.60;11.68;;;;;;;9.32;51.24;99632.73;1703894;82;21174;-77
2021/03/16 08:22:19;;;;;;;21.60;9.33;;;;;;;9.44;51.37;99648.39;1776758;78;21191;-77
2021/03/16 08:25:10;;;;;;;17.87;9.20;;;;;;;9.58;50.99;99641.86;1780104;78;21807;-78
2021/03/16 08:27:56;;;;;;;19.17;9.43;;;;;;;9.65;50.86;99646.84;1776642;78;21675;-77
2021/03/16 08:30:41;;;;;;;18.02;8.03;;;;;;;9.72;50.67;99642.13;1778519;78;21112;-75
2021/03/16 08:33:28;;;;;;;15.18;10.23;;;;;;;9.79;50.58;99643.12;1779833;78;21139;-77
2021/03/16 08:36:14;;;;;;;18.05;9.80;;;;;;;9.94;50.56;99634.69;1783611;78;21132;-77
2021/03/16 08:39:00;;;;;;;17.32;8.93;;;;;;;10.17;50.28;99636.08;1759109;79;21159;-76
2021/03/16 08:42:01;;;;;;;20.75;9.18;;;;;;;10.39;49.99;99639.32;1779850;78;21132;-80
2021/03/16 08:44:48;;;;;;;19.10;8.88;;;;;;;10.60;49.45;99634.67;1758753;78;21132;-76
2021/03/16 08:47:35;;;;;;;16.30;8.15;;;;;;;10.74;49.03;99634.41;1779347;78;21128;-76
2021/03/16 08:50:26;;;;;;;15.30;8.28;;;;;;;10.84;48.38;99642.19;1760078;79;28089;-76
2021/03/16 08:53:15;;;;;;;19.62;10.15;;;;;;;10.80;48.02;99638.20;1778371;79;21104;-77
2021/03/16 08:56:07;;;;;;;15.45;9.55;;;;;;;10.71;48.22;99636.59;1781203;79;21075;-77
2021/03/16 08:58:56;;;;;;;19.07;9.15;;;;;;;10.72;48.23;99634.23;1761105;78;22153;-75
2021/03/16 09:01:48;;;;;;;16.65;9.10;;;;;;;10.79;48.29;99625.83;1738808;79;21136;-76
2021/03/16 09:04:35;;;;;;;21.10;12.13;;;;;;;10.88;48.27;99624.75;1779649;78;21135;-76
2021/03/16 09:07:27;;;;;;;24.47;13.13;;;;;;;10.87;47.93;99632.47;1781013;79;21840;-75
2021/03/16 09:10:17;;;;;;;23.07;10.38;;;;;;;10.78;47.83;99638.39;1778356;79;21175;-76
2021/03/16 09:13:09;;;;;;;16.55;8.90;;;;;;;10.66;48.08;99632.61;1779299;78;21139;-77
2021/03/16 09:15:56;;;;;;;20.82;10.50;;;;;;;10.53;48.25;99634.22;1782226;78;21116;-78
2021/03/16 09:18:45;;;;;;;21.87;8.70;;;;;;;10.42;48.58;99640.83;1779306;78;21124;-76
2021/03/16 09:21:33;;;;;;;20.52;9.43;;;;;;;10.31;48.71;99626.48;1781252;79;21104;-77
2021/03/16 09:24:25;;;;;;;17.77;9.55;;;;;;;10.24;48.97;99634.88;1778930;79;21217;-75
2021/03/16 09:27:13;;;;;;;20.60;13.30;;;;;;;10.19;49.00;99637.25;1747176;79;21112;-79
2021/03/16 09:29:59;;;;;;;22.95;12.78;;;;;;;10.22;49.07;99647.59;1777677;78;21151;-76
2021/03/16 09:32:58;;;;;;;21.95;14.75;;;;;;;10.13;48.99;99640.97;1759242;79;21229;-77
2021/03/16 09:35:43;;;;;;;30.43;18.17;;;;;;;10.03;49.08;99635.48;1779174;78;21108;-77
2021/03/16 09:38:31;;;;;;;17.70;10.45;;;;;;;10.01;49.44;99630.31;1776514;79;26844;-79
2021/03/16 09:41:09;;;;;;;28.12;16.82;;;;;;;10.06;49.46;99633.30;1748392;79;21104;-77
2021/03/16 09:43:42;;;;;;;28.47;18.35;;;;;;;10.03;49.50;99624.27;1714737;80;21161;-79
2021/03/16 09:46:16;;;;;;;26.20;15.20;;;;;;;10.05;49.43;99625.45;1767128;80;21141;-78
2021/03/16 09:48:55;;;;;;;18.05;10.95;;;;;;;10.04;49.66;99628.64;1769353;78;21153;-76
2021/03/16 09:51:26;;;;;;;23.10;13.15;;;;;;;10.11;49.46;99632.27;1766208;79;21140;-75
2021/03/16 09:53:57;;;;;;;31.52;15.95;;;;;;;10.12;49.42;99632.59;1765038;79;21157;-79
2021/03/16 09:56:36;;;;;;;20.30;12.20;;;;;;;10.13;49.49;99631.60;1765394;79;21916;-77
2021/03/16 09:59:14;;;;;;;25.70;12.73;;;;;;;10.14;49.34;99625.74;1764758;79;21173;-78
2021/03/16 10:01:49;;;;;;;13.10;8.40;;;;;;;10.10;49.48;99627.92;1694008;80;21133;-78
2021/03/16 10:04:28;;;;;;;24.70;8.08;;;;;;;10.11;49.45;99626.91;1750306;80;21141;-78
2021/03/16 10:07:05;;;;;;;20.27;8.90;;;;;;;10.09;49.56;99617.41;1766693;79;21172;-77
2021/03/16 10:09:49;;;;;;;18.45;7.25;;;;;;;10.10;49.63;99627.09;1767246;79;21144;-78
2021/03/16 10:12:28;;;;;;;22.45;8.50;;;;;;;10.11;49.72;99632.27;1742870;79;21144;-79
2021/03/16 10:15:02;;;;;;;16.32;9.35;;;;;;;10.14;49.62;99620.39;1770136;79;21584;-76
2021/03/16 10:17:36;;;;;;;28.07;13.55;;;;;;;10.14;49.70;99619.87;1744005;79;21601;-77
2021/03/16 10:20:12;;;;;;;36.83;18.95;;;;;;;10.16;49.68;99620.52;1693728;80;21165;-76
2021/03/16 10:22:42;;;;;;;36.50;21.07;;;;;;;10.14;49.42;99630.58;1767678;79;22010;-77
2021/03/16 10:25:14;;;;;;;29.87;15.88;;;;;;;10.03;49.49;99622.11;1768942;79;21599;-76
2021/03/16 10:27:43;;;;;;;22.87;13.60;;;;;;;9.95;49.71;99614.97;1766044;79;21590;-78
2021/03/16 10:30:12;;;;;;;38.45;15.43;;;;;;;9.94;49.89;99622.64;1743175;80;21118;-76
2021/03/16 10:32:40;;;;;;;25.08;14.60;;;;;;;9.95;49.87;99616.31;1738792;80;21669;-77
2021/03/16 10:35:12;;;;;;;29.35;15.28;;;;;;;9.96;49.91;99619.31;1713546;80;21180;-77
2021/03/16 10:37:45;;;;;;;39.40;17.37;;;;;;;9.97;50.00;99616.95;1767746;79;21171;-78
2021/03/16 10:40:13;;;;;;;32.60;16.73;;;;;;;9.97;49.93;99624.98;1769574;79;21129;-77
2021/03/16 10:42:41;;;;;;;29.02;16.32;;;;;;;10.02;50.05;99619.94;1769462;79;21136;-78
2021/03/16 10:45:09;;;;;;;30.62;16.17;;;;;;;10.05;49.92;99622.27;1743702;80;21141;-76
2021/03/16 10:47:39;;;;;;;34.83;18.80;;;;;;;10.09;49.95;99620.91;1737757;81;21203;-79
2021/03/16 10:50:07;;;;;;;35.28;18.27;;;;;;;10.13;49.84;99622.74;1738135;80;21697;-77
2021/03/16 10:52:35;;;;;;;32.90;17.90;;;;;;;10.13;49.91;99619.56;1769332;79;21649;-77
2021/03/16 10:55:03;;;;;;;37.67;18.02;;;;;;;10.14;49.98;99617.20;1770205;79;21136;-76
2021/03/16 10:57:30;;;;;;;33.40;16.10;;;;;;;10.17;49.95;99614.66;1737213;80;21576;-77
2021/03/16 10:59:57;;;;;;;35.05;19.55;;;;;;;10.24;50.06;99616.14;1768878;79;21155;-77
2021/03/16 11:02:24;;;;;;;;;;;;;;;10.32;50.05;99616.97;1773606;79;21151;-76
2021/03/16 11:04:52;;;;;;;38.42;17.73;;;;;;;10.41;50.00;99617.75;1770327;80;20315;-77
2021/03/16 11:07:23;;;;;;;35.50;19.32;;;;;;;10.46;49.88;99615.37;1766565;79;21128;-76
2021/03/16 11:09:53;;;;;;;36.03;17.57;;;;;;;10.51;49.72;99610.30;1768564;79;21156;-79
2021/03/16 11:12:20;;;;;;;38.42;18.12;;;;;;;10.52;49.73;99609.80;1712331;81;22119;-75
2021/03/16 11:14:48;;;;;;;47.20;20.57;;;;;;;10.56;49.86;99606.58;1767166;79;21128;-76
2021/03/16 11:17:18;;;;;;;34.48;18.00;;;;;;;10.58;49.84;99604.58;1767489;79;21620;-75
2021/03/16 11:19:45;;;;;;;31.52;17.17;;;;;;;10.65;49.82;99598.81;1765792;79;21113;-77
2021/03/16 11:22:13;;;;;;;39.33;20.08;;;;;;;10.73;49.66;99598.44;1746484;80;21105;-77
2021/03/16 11:24:41;;;;;;;31.55;19.40;;;;;;;10.81;49.50;99598.34;1711606;80;21155;-76
2021/03/16 11:27:10;;;;;;;33.50;17.95;;;;;;;10.84;49.45;99593.97;1737788;79;21148;-76
2021/03/16 11:29:40;;;;;;;40.95;17.95;;;;;;;10.92;49.23;99592.56;1765397;79;21187;-76
2021/03/16 11:32:08;;;;;;;42.10;19.87;;;;;;;10.96;48.89;99588.52;1770583;79;21145;-74
2021/03/16 11:34:53;;;;;;;40.90;19.65;;;;;;;10.98;48.71;99592.34;1766361;79;21100;-73
2021/03/16 11:37:39;;;;;;;33.25;18.15;;;;;;;10.92;48.68;99583.19;1738440;80;21104;-76
2021/03/16 11:40:27;;;;;;;38.60;19.10;;;;;;;10.87;48.92;99577.55;1745479;80;21732;-75
2021/03/16 11:43:13;;;;;;;33.23;17.05;;;;;;;10.89;49.04;99580.35;1770618;79;21123;-76
2021/03/16 11:45:58;;;;;;;35.05;16.73;;;;;;;10.90;49.16;99579.36;1767306;79;21130;-78
2021/03/16 11:48:44;;;;;;;29.00;14.83;;;;;;;10.94;49.13;99585.16;1769646;79;21109;-75
2021/03/16 11:51:30;;;;;;;33.48;16.93;;;;;;;11.00;49.07;99598.36;1771645;79;21112;-76
2021/03/16 11:54:17;;;;;;;30.72;17.52;;;;;;;10.96;48.88;99586.34;1768162;79;21166;-75
2021/03/16 11:57:04;;;;;;;34.95;17.57;;;;;;;10.92;49.00;99591.22;1729473;80;21136;-74
2021/03/16 11:59:51;;;;;;;34.90;17.67;;;;;;;10.83;48.88;99596.33;1748228;80;21558;-75
2021/03/16 12:02:39;;;;;;;40.67;17.67;;;;;;;10.68;49.11;99598.14;1696569;81;21208;-75
2021/03/16 12:05:26;;;;;;;40.80;18.05;;;;;;;10.57;49.50;99590.84;1769710;79;21140;-79
2021/03/16 12:08:15;;;;;;;28.70;15.90;;;;;;;10.58;49.62;99587.17;1768058;79;21226;-77
2021/03/16 12:11:01;;;;;;;33.48;18.10;;;;;;;10.59;49.57;99583.47;1768525;79;21084;-75
2021/03/16 12:13:47;;;;;;;27.58;16.60;;;;;;;10.57;49.68;99587.33;1738402;80;21243;-75
2021/03/16 12:16:38;;;;;;;46.28;18.95;;;;;;;10.57;49.65;99584.66;1743800;80;21126;-75
2021/03/16 12:19:28;;;;;;;30.92;17.60;;;;;;;10.49;49.75;99579.36;1708824;81;21176;-77
2021/03/16 12:22:15;;;;;;;42.60;20.25;;;;;;;10.46;49.98;99580.56;1772979;80;21159;-77
2021/03/16 12:25:02;;;;;;;38.10;19.87;;;;;;;10.51;50.08;99576.01;1768101;79;21637;-77
2021/03/16 12:27:48;;;;;;;33.65;17.65;;;;;;;10.57;49.93;99570.75;1770069;79;21100;-74
2021/03/16 12:30:35;;;;;;;33.85;19.55;;;;;;;10.58;49.87;99571.58;1769238;79;21108;-76
2021/03/16 12:33:21;;;;;;;39.78;23.27;;;;;;;10.58;49.73;99568.91;1720618;81;21139;-77
2021/03/16 12:36:09;;;;;;;41.63;23.27;;;;;;;10.56;49.84;99565.59;1769072;79;21138;-75
2021/03/16 12:38:55;;;;;;;42.40;23.32;;;;;;;10.60;49.89;99561.03;1766998;79;21505;-77